Decoded Metar for GMAD (AL MASSIRA MC in MOROCCO) (IATA:N/A) | Meteo·Mobile Aviation Weather
aviador You're here:

GMAD Decoded Metar

AL MASSIRA MC in MOROCCO
Report Time2019-04-23 08:00:00
UTC Time2019-04-23 08:25:33
Flight Rules vfr VFR
Wind260° at 09 kt
W.Decomp.*RWY 28: 8.6 kt HW 2.6 kt LCW
Visibility9999 m
Phenomena:N/A
Clouds:Scattered 026 Hf
Scattered 083 Hf
Expected CloudBase > 2,400 ft AGL from Temp-Dew spread
CeilingNone
Temp17°C (ISA +2)
Dew Point11°C (68% RH)
AAT14.1°C
QNH1009 hPa
Density Alt846 ft
Elevation243 ft
Report Wrong Elevation
Raw Report
GMAD 230800Z 26009KT 9999 SCT026 SCT083 17/11 Q1009 NOSIG=

Extra information for GMAD:More info

Metar Taf Metar & Taf Last 4 Metars F.Rules Stats Wind Profile Meteogram Temp Stats Airport Information Weather charts Add Link Nearby VenuesMetar ALERT Operation Metar Decoded Social comments